sensor_id;sensor_type;location;lat;lon;timestamp;temperature;humidity
23385;DHT22;11865;45.394;10.978;2023-04-25T00:00:40;13.50;99.90
23385;DHT22;11865;45.394;10.978;2023-04-25T00:03:07;13.50;99.90
23385;DHT22;11865;45.394;10.978;2023-04-25T00:05:37;13.50;99.90
23385;DHT22;11865;45.394;10.978;2023-04-25T00:08:05;13.50;99.90
23385;DHT22;11865;45.394;10.978;2023-04-25T00:10:32;13.50;99.90
23385;DHT22;11865;45.394;10.978;2023-04-25T00:12:59;13.50;99.90
23385;DHT22;11865;45.394;10.978;2023-04-25T00:15:29;13.50;99.90
23385;DHT22;11865;45.394;10.978;2023-04-25T00:17:57;13.30;99.90
23385;DHT22;11865;45.394;10.978;2023-04-25T00:20:25;13.30;99.90
23385;DHT22;11865;45.394;10.978;2023-04-25T00:22:52;13.20;99.90
23385;DHT22;11865;45.394;10.978;2023-04-25T00:25:20;13.20;99.90
23385;DHT22;11865;45.394;10.978;2023-04-25T00:27:48;13.30;99.90
23385;DHT22;11865;45.394;10.978;2023-04-25T00:30:15;13.40;99.90
23385;DHT22;11865;45.394;10.978;2023-04-25T00:32:43;13.40;99.90
23385;DHT22;11865;45.394;10.978;2023-04-25T00:35:10;13.50;99.90
23385;DHT22;11865;45.394;10.978;2023-04-25T00:37:38;13.50;99.90
23385;DHT22;11865;45.394;10.978;2023-04-25T00:40:06;13.50;99.90
23385;DHT22;11865;45.394;10.978;2023-04-25T00:42:35;13.60;99.90
23385;DHT22;11865;45.394;10.978;2023-04-25T00:45:05;13.60;99.90
23385;DHT22;11865;45.394;10.978;2023-04-25T00:47:35;13.60;99.90
23385;DHT22;11865;45.394;10.978;2023-04-25T00:50:03;13.60;99.90
23385;DHT22;11865;45.394;10.978;2023-04-25T00:52:31;13.70;99.90
23385;DHT22;11865;45.394;10.978;2023-04-25T00:54:59;13.70;99.90
23385;DHT22;11865;45.394;10.978;2023-04-25T00:57:27;13.70;99.90
23385;DHT22;11865;45.394;10.978;2023-04-25T00:59:55;13.70;99.90
23385;DHT22;11865;45.394;10.978;2023-04-25T01:02:23;13.70;99.90
23385;DHT22;11865;45.394;10.978;2023-04-25T01:04:51;13.70;99.90
23385;DHT22;11865;45.394;10.978;2023-04-25T01:07:19;13.70;99.90
23385;DHT22;11865;45.394;10.978;2023-04-25T01:09:47;13.70;99.90
23385;DHT22;11865;45.394;10.978;2023-04-25T01:12:15;13.70;99.90
23385;DHT22;11865;45.394;10.978;2023-04-25T01:14:42;13.60;99.90
23385;DHT22;11865;45.394;10.978;2023-04-25T01:17:10;13.60;99.90
23385;DHT22;11865;45.394;10.978;2023-04-25T01:19:38;13.60;99.90
23385;DHT22;11865;45.394;10.978;2023-04-25T01:22:06;13.60;99.90
23385;DHT22;11865;45.394;10.978;2023-04-25T01:24:34;13.60;99.90
23385;DHT22;11865;45.394;10.978;2023-04-25T01:27:02;13.50;99.90
23385;DHT22;11865;45.394;10.978;2023-04-25T01:29:32;13.50;99.90
23385;DHT22;11865;45.394;10.978;2023-04-25T01:32:00;13.50;99.90
23385;DHT22;11865;45.394;10.978;2023-04-25T01:34:28;13.50;99.90
23385;DHT22;11865;45.394;10.978;2023-04-25T01:36:59;13.60;99.90
23385;DHT22;11865;45.394;10.978;2023-04-25T01:39:28;13.60;99.90
23385;DHT22;11865;45.394;10.978;2023-04-25T01:41:57;13.60;99.90
23385;DHT22;11865;45.394;10.978;2023-04-25T01:44:25;13.60;99.90
23385;DHT22;11865;45.394;10.978;2023-04-25T01:46:54;13.60;99.90
23385;DHT22;11865;45.394;10.978;2023-04-25T01:49:21;13.60;99.90
23385;DHT22;11865;45.394;10.978;2023-04-25T01:51:49;13.60;99.90
23385;DHT22;11865;45.394;10.978;2023-04-25T01:54:17;13.60;99.90
23385;DHT22;11865;45.394;10.978;2023-04-25T01:56:50;13.60;99.90
23385;DHT22;11865;45.394;10.978;2023-04-25T01:59:19;13.60;99.90
23385;DHT22;11865;45.394;10.978;2023-04-25T02:01:59;13.70;99.90
23385;DHT22;11865;45.394;10.978;2023-04-25T02:04:32;13.60;99.90
23385;DHT22;11865;45.394;10.978;2023-04-25T02:07:01;13.60;99.90
23385;DHT22;11865;45.394;10.978;2023-04-25T02:09:38;13.60;99.90
23385;DHT22;11865;45.394;10.978;2023-04-25T02:12:09;13.60;99.90
23385;DHT22;11865;45.394;10.978;2023-04-25T02:15:09;13.60;99.90
23385;DHT22;11865;45.394;10.978;2023-04-25T02:17:43;13.60;99.90
23385;DHT22;11865;45.394;10.978;2023-04-25T02:20:12;13.60;99.90
23385;DHT22;11865;45.394;10.978;2023-04-25T02:22:39;13.70;99.90
23385;DHT22;11865;45.394;10.978;2023-04-25T02:25:08;13.70;99.90
23385;DHT22;11865;45.394;10.978;2023-04-25T02:27:36;13.70;99.90
23385;DHT22;11865;45.394;10.978;2023-04-25T02:30:05;13.70;99.90
23385;DHT22;11865;45.394;10.978;2023-04-25T02:32:33;13.60;99.90
23385;DHT22;11865;45.394;10.978;2023-04-25T02:35:02;13.60;99.90
23385;DHT22;11865;45.394;10.978;2023-04-25T02:37:35;13.60;99.90
23385;DHT22;11865;45.394;10.978;2023-04-25T02:40:03;13.60;99.90
23385;DHT22;11865;45.394;10.978;2023-04-25T02:42:31;13.60;99.90
23385;DHT22;11865;45.394;10.978;2023-04-25T02:44:59;13.60;99.90
23385;DHT22;11865;45.394;10.978;2023-04-25T02:47:26;13.60;99.90
23385;DHT22;11865;45.394;10.978;2023-04-25T02:49:54;13.60;99.90
23385;DHT22;11865;45.394;10.978;2023-04-25T02:52:22;13.70;99.90
23385;DHT22;11865;45.394;10.978;2023-04-25T02:54:57;13.70;99.90
23385;DHT22;11865;45.394;10.978;2023-04-25T02:57:26;13.60;99.90
23385;DHT22;11865;45.394;10.978;2023-04-25T02:59:53;13.60;99.90
23385;DHT22;11865;45.394;10.978;2023-04-25T03:02:21;13.50;99.90
23385;DHT22;11865;45.394;10.978;2023-04-25T03:04:48;13.40;99.90
23385;DHT22;11865;45.394;10.978;2023-04-25T03:07:16;13.30;99.90
23385;DHT22;11865;45.394;10.978;2023-04-25T03:09:44;13.30;99.90
23385;DHT22;11865;45.394;10.978;2023-04-25T03:12:12;13.30;99.90
23385;DHT22;11865;45.394;10.978;2023-04-25T03:14:39;13.30;99.90
23385;DHT22;11865;45.394;10.978;2023-04-25T03:17:07;13.30;99.90
23385;DHT22;11865;45.394;10.978;2023-04-25T03:19:35;13.30;99.90
23385;DHT22;11865;45.394;10.978;2023-04-25T03:22:02;13.30;99.90
23385;DHT22;11865;45.394;10.978;2023-04-25T03:24:30;13.30;99.90
23385;DHT22;11865;45.394;10.978;2023-04-25T03:26:58;13.30;99.90
23385;DHT22;11865;45.394;10.978;2023-04-25T03:29:25;13.30;99.90
23385;DHT22;11865;45.394;10.978;2023-04-25T03:31:56;13.30;99.90
23385;DHT22;11865;45.394;10.978;2023-04-25T03:34:23;13.40;99.90
23385;DHT22;11865;45.394;10.978;2023-04-25T03:36:51;13.40;99.90
23385;DHT22;11865;45.394;10.978;2023-04-25T03:39:19;13.40;99.90
23385;DHT22;11865;45.394;10.978;2023-04-25T03:41:49;13.40;99.90
23385;DHT22;11865;45.394;10.978;2023-04-25T03:44:18;13.40;99.90
23385;DHT22;11865;45.394;10.978;2023-04-25T03:46:46;13.50;99.90
23385;DHT22;11865;45.394;10.978;2023-04-25T03:49:13;13.50;99.90
23385;DHT22;11865;45.394;10.978;2023-04-25T03:51:56;13.50;99.90
23385;DHT22;11865;45.394;10.978;2023-04-25T03:54:24;13.40;99.90
23385;DHT22;11865;45.394;10.978;2023-04-25T03:57:03;13.30;99.90
23385;DHT22;11865;45.394;10.978;2023-04-25T03:59:34;13.30;99.90
23385;DHT22;11865;45.394;10.978;2023-04-25T04:02:01;13.30;99.90
23385;DHT22;11865;45.394;10.978;2023-04-25T04:04:30;13.20;99.90
23385;DHT22;11865;45.394;10.978;2023-04-25T04:06:59;13.20;99.90
23385;DHT22;11865;45.394;10.978;2023-04-25T04:09:30;13.20;99.90
23385;DHT22;11865;45.394;10.978;2023-04-25T04:12:00;13.20;99.90
23385;DHT22;11865;45.394;10.978;2023-04-25T04:14:30;13.20;99.90
23385;DHT22;11865;45.394;10.978;2023-04-25T04:16:57;13.30;99.90
23385;DHT22;11865;45.394;10.978;2023-04-25T04:19:25;13.40;99.90
23385;DHT22;11865;45.394;10.978;2023-04-25T04:22:03;13.50;99.90
23385;DHT22;11865;45.394;10.978;2023-04-25T04:24:31;13.50;99.90
23385;DHT22;11865;45.394;10.978;2023-04-25T04:27:02;13.60;99.90
23385;DHT22;11865;45.394;10.978;2023-04-25T04:29:35;13.60;99.90
23385;DHT22;11865;45.394;10.978;2023-04-25T04:32:26;13.70;99.90
23385;DHT22;11865;45.394;10.978;2023-04-25T04:34:55;13.70;99.90
23385;DHT22;11865;45.394;10.978;2023-04-25T04:37:24;13.80;99.90
23385;DHT22;11865;45.394;10.978;2023-04-25T04:39:51;13.90;99.90
23385;DHT22;11865;45.394;10.978;2023-04-25T04:42:28;13.90;99.90
23385;DHT22;11865;45.394;10.978;2023-04-25T04:45:09;13.90;99.90
23385;DHT22;11865;45.394;10.978;2023-04-25T04:47:46;13.90;99.90
23385;DHT22;11865;45.394;10.978;2023-04-25T04:50:43;13.90;99.90
23385;DHT22;11865;45.394;10.978;2023-04-25T04:53:21;13.90;99.90
23385;DHT22;11865;45.394;10.978;2023-04-25T04:56:17;13.90;99.90
23385;DHT22;11865;45.394;10.978;2023-04-25T04:58:53;13.90;99.90
23385;DHT22;11865;45.394;10.978;2023-04-25T05:01:21;13.90;99.90
23385;DHT22;11865;45.394;10.978;2023-04-25T05:04:00;13.80;99.90
23385;DHT22;11865;45.394;10.978;2023-04-25T05:07:00;13.80;99.90
23385;DHT22;11865;45.394;10.978;2023-04-25T05:09:30;13.70;99.90
23385;DHT22;11865;45.394;10.978;2023-04-25T05:12:17;13.70;99.90
23385;DHT22;11865;45.394;10.978;2023-04-25T05:15:02;13.70;99.90
23385;DHT22;11865;45.394;10.978;2023-04-25T05:17:43;13.50;99.90
23385;DHT22;11865;45.394;10.978;2023-04-25T05:20:36;11.40;99.90
23385;DHT22;11865;45.394;10.978;2023-04-25T05:23:22;9.30;99.90
23385;DHT22;11865;45.394;10.978;2023-04-25T05:25:49;7.90;99.90
23385;DHT22;11865;45.394;10.978;2023-04-25T05:28:42;8.60;99.90
23385;DHT22;11865;45.394;10.978;2023-04-25T05:31:37;9.40;99.90
23385;DHT22;11865;45.394;10.978;2023-04-25T05:34:09;10.30;99.90
23385;DHT22;11865;45.394;10.978;2023-04-25T05:36:46;11.00;99.90
23385;DHT22;11865;45.394;10.978;2023-04-25T05:39:16;11.40;99.90
23385;DHT22;11865;45.394;10.978;2023-04-25T05:42:05;11.90;99.90
23385;DHT22;11865;45.394;10.978;2023-04-25T05:44:51;12.60;99.90
23385;DHT22;11865;45.394;10.978;2023-04-25T05:47:39;13.10;99.90
23385;DHT22;11865;45.394;10.978;2023-04-25T05:50:15;13.60;99.90
23385;DHT22;11865;45.394;10.978;2023-04-25T05:52:53;14.10;99.90
23385;DHT22;11865;45.394;10.978;2023-04-25T05:55:26;14.30;99.90
23385;DHT22;11865;45.394;10.978;2023-04-25T05:57:54;14.60;99.90
23385;DHT22;11865;45.394;10.978;2023-04-25T06:00:22;14.90;99.90
23385;DHT22;11865;45.394;10.978;2023-04-25T06:02:50;15.20;99.90
23385;DHT22;11865;45.394;10.978;2023-04-25T06:05:19;15.50;99.90
23385;DHT22;11865;45.394;10.978;2023-04-25T06:07:47;15.90;99.90
23385;DHT22;11865;45.394;10.978;2023-04-25T06:10:15;16.10;99.90
23385;DHT22;11865;45.394;10.978;2023-04-25T06:12:42;16.40;99.90
23385;DHT22;11865;45.394;10.978;2023-04-25T06:15:10;16.70;99.90
23385;DHT22;11865;45.394;10.978;2023-04-25T06:17:54;16.70;99.90
23385;DHT22;11865;45.394;10.978;2023-04-25T06:20:22;17.00;99.90
23385;DHT22;11865;45.394;10.978;2023-04-25T06:22:53;17.30;99.90
23385;DHT22;11865;45.394;10.978;2023-04-25T06:25:26;17.30;99.90
23385;DHT22;11865;45.394;10.978;2023-04-25T06:27:55;17.60;99.90
23385;DHT22;11865;45.394;10.978;2023-04-25T06:30:23;17.60;99.90
23385;DHT22;11865;45.394;10.978;2023-04-25T06:32:57;17.70;99.90
23385;DHT22;11865;45.394;10.978;2023-04-25T06:35:28;17.90;99.90
23385;DHT22;11865;45.394;10.978;2023-04-25T06:37:55;18.00;99.90
23385;DHT22;11865;45.394;10.978;2023-04-25T06:40:24;18.40;99.90
23385;DHT22;11865;45.394;10.978;2023-04-25T06:42:52;18.40;99.90
23385;DHT22;11865;45.394;10.978;2023-04-25T06:45:39;18.50;99.90
23385;DHT22;11865;45.394;10.978;2023-04-25T06:48:08;18.90;99.90
23385;DHT22;11865;45.394;10.978;2023-04-25T06:50:36;19.10;99.90
23385;DHT22;11865;45.394;10.978;2023-04-25T06:53:03;19.20;99.90
23385;DHT22;11865;45.394;10.978;2023-04-25T06:55:31;19.10;99.90
23385;DHT22;11865;45.394;10.978;2023-04-25T06:58:27;19.20;99.90
23385;DHT22;11865;45.394;10.978;2023-04-25T07:01:12;19.20;99.90
23385;DHT22;11865;45.394;10.978;2023-04-25T07:03:40;19.30;99.90
23385;DHT22;11865;45.394;10.978;2023-04-25T07:06:13;19.60;99.90
23385;DHT22;11865;45.394;10.978;2023-04-25T07:08:41;20.70;99.90
23385;DHT22;11865;45.394;10.978;2023-04-25T07:11:08;21.40;99.90
23385;DHT22;11865;45.394;10.978;2023-04-25T07:13:37;21.00;99.90
23385;DHT22;11865;45.394;10.978;2023-04-25T07:16:04;20.70;99.90
23385;DHT22;11865;45.394;10.978;2023-04-25T07:18:34;20.30;99.90
23385;DHT22;11865;45.394;10.978;2023-04-25T07:21:02;19.90;99.90
23385;DHT22;11865;45.394;10.978;2023-04-25T07:23:32;19.60;99.90
23385;DHT22;11865;45.394;10.978;2023-04-25T07:26:03;19.60;99.90
23385;DHT22;11865;45.394;10.978;2023-04-25T07:28:30;19.50;99.90
23385;DHT22;11865;45.394;10.978;2023-04-25T07:30:58;19.30;99.90
23385;DHT22;11865;45.394;10.978;2023-04-25T07:33:25;19.30;99.90
23385;DHT22;11865;45.394;10.978;2023-04-25T07:35:53;19.20;99.90
23385;DHT22;11865;45.394;10.978;2023-04-25T07:38:21;19.30;99.90
23385;DHT22;11865;45.394;10.978;2023-04-25T07:40:49;19.40;99.90
23385;DHT22;11865;45.394;10.978;2023-04-25T07:43:17;19.20;99.90
23385;DHT22;11865;45.394;10.978;2023-04-25T07:46:04;19.10;99.90
23385;DHT22;11865;45.394;10.978;2023-04-25T07:48:34;19.10;99.90
23385;DHT22;11865;45.394;10.978;2023-04-25T07:51:02;19.00;99.90
23385;DHT22;11865;45.394;10.978;2023-04-25T07:53:33;19.00;99.90
23385;DHT22;11865;45.394;10.978;2023-04-25T07:56:06;18.80;99.90
23385;DHT22;11865;45.394;10.978;2023-04-25T07:58:37;18.90;99.90
23385;DHT22;11865;45.394;10.978;2023-04-25T08:01:07;18.70;99.90
23385;DHT22;11865;45.394;10.978;2023-04-25T08:03:34;18.70;99.90
23385;DHT22;11865;45.394;10.978;2023-04-25T08:06:06;18.70;99.90
23385;DHT22;11865;45.394;10.978;2023-04-25T08:08:43;18.60;99.90
23385;DHT22;11865;45.394;10.978;2023-04-25T08:11:13;18.50;99.90
23385;DHT22;11865;45.394;10.978;2023-04-25T08:13:40;18.30;99.90
23385;DHT22;11865;45.394;10.978;2023-04-25T08:16:09;18.40;99.90
23385;DHT22;11865;45.394;10.978;2023-04-25T08:18:36;18.60;99.90
23385;DHT22;11865;45.394;10.978;2023-04-25T08:21:04;18.60;99.90
23385;DHT22;11865;45.394;10.978;2023-04-25T08:23:32;18.80;99.90
23385;DHT22;11865;45.394;10.978;2023-04-25T08:26:05;19.00;99.90
23385;DHT22;11865;45.394;10.978;2023-04-25T08:28:36;18.70;99.90
23385;DHT22;11865;45.394;10.978;2023-04-25T08:31:04;18.00;99.90
23385;DHT22;11865;45.394;10.978;2023-04-25T08:33:40;18.00;99.90
23385;DHT22;11865;45.394;10.978;2023-04-25T08:36:28;17.90;99.90
23385;DHT22;11865;45.394;10.978;2023-04-25T08:38:59;17.00;99.90
23385;DHT22;11865;45.394;10.978;2023-04-25T08:41:27;16.30;99.90
23385;DHT22;11865;45.394;10.978;2023-04-25T08:43:56;15.60;99.90
23385;DHT22;11865;45.394;10.978;2023-04-25T08:46:24;15.00;99.90
23385;DHT22;11865;45.394;10.978;2023-04-25T08:49:17;15.50;99.90
23385;DHT22;11865;45.394;10.978;2023-04-25T08:51:46;15.00;99.90
23385;DHT22;11865;45.394;10.978;2023-04-25T08:54:16;14.70;99.90
23385;DHT22;11865;45.394;10.978;2023-04-25T08:56:48;14.40;99.90
23385;DHT22;11865;45.394;10.978;2023-04-25T08:59:15;14.50;99.90
23385;DHT22;11865;45.394;10.978;2023-04-25T09:01:45;14.40;99.90
23385;DHT22;11865;45.394;10.978;2023-04-25T09:04:14;14.40;99.90
23385;DHT22;11865;45.394;10.978;2023-04-25T09:06:42;14.10;99.90
23385;DHT22;11865;45.394;10.978;2023-04-25T09:09:10;13.40;99.90
23385;DHT22;11865;45.394;10.978;2023-04-25T09:11:38;12.10;99.90
23385;DHT22;11865;45.394;10.978;2023-04-25T09:14:22;12.30;99.90
23385;DHT22;11865;45.394;10.978;2023-04-25T09:17:07;12.00;99.90
23385;DHT22;11865;45.394;10.978;2023-04-25T09:20:05;13.20;99.90
23385;DHT22;11865;45.394;10.978;2023-04-25T09:22:34;13.90;99.90
23385;DHT22;11865;45.394;10.978;2023-04-25T09:25:04;14.20;99.90
23385;DHT22;11865;45.394;10.978;2023-04-25T09:27:34;14.30;99.90
23385;DHT22;11865;45.394;10.978;2023-04-25T09:30:10;14.50;99.90
23385;DHT22;11865;45.394;10.978;2023-04-25T09:33:16;14.50;99.90
23385;DHT22;11865;45.394;10.978;2023-04-25T09:35:48;14.50;99.90
23385;DHT22;11865;45.394;10.978;2023-04-25T09:38:45;14.90;99.90
23385;DHT22;11865;45.394;10.978;2023-04-25T09:41:23;15.00;99.90
23385;DHT22;11865;45.394;10.978;2023-04-25T09:43:57;15.00;99.90
23385;DHT22;11865;45.394;10.978;2023-04-25T09:46:36;15.00;99.90
23385;DHT22;11865;45.394;10.978;2023-04-25T09:49:07;14.70;99.90
23385;DHT22;11865;45.394;10.978;2023-04-25T09:51:58;15.30;99.90
23385;DHT22;11865;45.394;10.978;2023-04-25T09:54:30;15.10;99.90
23385;DHT22;11865;45.394;10.978;2023-04-25T09:59:43;15.30;99.90
23385;DHT22;11865;45.394;10.978;2023-04-25T10:02:12;15.10;99.90
23385;DHT22;11865;45.394;10.978;2023-04-25T10:04:40;15.20;99.90
23385;DHT22;11865;45.394;10.978;2023-04-25T10:07:30;15.20;99.90
23385;DHT22;11865;45.394;10.978;2023-04-25T10:10:03;15.20;99.90
23385;DHT22;11865;45.394;10.978;2023-04-25T10:12:33;15.70;99.90
23385;DHT22;11865;45.394;10.978;2023-04-25T10:15:02;15.50;99.90
23385;DHT22;11865;45.394;10.978;2023-04-25T10:17:32;15.80;99.90
23385;DHT22;11865;45.394;10.978;2023-04-25T10:20:02;15.80;99.90
23385;DHT22;11865;45.394;10.978;2023-04-25T10:22:41;16.30;99.90
23385;DHT22;11865;45.394;10.978;2023-04-25T10:25:09;16.60;99.90
23385;DHT22;11865;45.394;10.978;2023-04-25T10:27:38;16.10;98.70
23385;DHT22;11865;45.394;10.978;2023-04-25T10:30:15;16.00;98.50
23385;DHT22;11865;45.394;10.978;2023-04-25T10:32:44;16.70;98.40
23385;DHT22;11865;45.394;10.978;2023-04-25T10:35:19;16.50;99.30
23385;DHT22;11865;45.394;10.978;2023-04-25T10:37:59;16.10;98.20
23385;DHT22;11865;45.394;10.978;2023-04-25T10:40:27;16.10;97.90
23385;DHT22;11865;45.394;10.978;2023-04-25T10:42:55;16.00;98.40
23385;DHT22;11865;45.394;10.978;2023-04-25T10:45:23;16.10;99.00
23385;DHT22;11865;45.394;10.978;2023-04-25T10:47:51;16.60;99.90
23385;DHT22;11865;45.394;10.978;2023-04-25T10:50:18;16.40;99.20
23385;DHT22;11865;45.394;10.978;2023-04-25T10:52:45;16.10;98.90
23385;DHT22;11865;45.394;10.978;2023-04-25T10:55:13;16.20;99.90
23385;DHT22;11865;45.394;10.978;2023-04-25T10:57:42;15.80;99.10
23385;DHT22;11865;45.394;10.978;2023-04-25T11:00:16;15.70;99.90
23385;DHT22;11865;45.394;10.978;2023-04-25T11:02:45;15.70;99.50
23385;DHT22;11865;45.394;10.978;2023-04-25T11:05:23;16.20;99.90
23385;DHT22;11865;45.394;10.978;2023-04-25T11:07:54;16.40;99.80
23385;DHT22;11865;45.394;10.978;2023-04-25T11:10:28;16.50;99.90
23385;DHT22;11865;45.394;10.978;2023-04-25T11:12:57;16.30;99.90
23385;DHT22;11865;45.394;10.978;2023-04-25T11:15:25;16.30;99.60
23385;DHT22;11865;45.394;10.978;2023-04-25T11:17:53;16.50;99.60
23385;DHT22;11865;45.394;10.978;2023-04-25T11:20:22;16.50;99.00
23385;DHT22;11865;45.394;10.978;2023-04-25T11:22:53;16.50;98.50
23385;DHT22;11865;45.394;10.978;2023-04-25T11:25:23;16.30;99.60
23385;DHT22;11865;45.394;10.978;2023-04-25T11:27:56;15.70;98.70
23385;DHT22;11865;45.394;10.978;2023-04-25T11:30:25;16.00;99.00
23385;DHT22;11865;45.394;10.978;2023-04-25T11:32:53;16.20;98.20
23385;DHT22;11865;45.394;10.978;2023-04-25T11:35:21;16.00;98.90
23385;DHT22;11865;45.394;10.978;2023-04-25T11:37:50;15.80;98.20
23385;DHT22;11865;45.394;10.978;2023-04-25T11:40:18;16.10;98.10
23385;DHT22;11865;45.394;10.978;2023-04-25T11:42:46;16.20;98.00
23385;DHT22;11865;45.394;10.978;2023-04-25T11:45:14;16.70;98.40
23385;DHT22;11865;45.394;10.978;2023-04-25T11:47:42;16.90;98.30
23385;DHT22;11865;45.394;10.978;2023-04-25T11:50:10;17.00;97.60
23385;DHT22;11865;45.394;10.978;2023-04-25T11:52:45;16.90;97.70
23385;DHT22;11865;45.394;10.978;2023-04-25T11:55:18;17.20;98.60
23385;DHT22;11865;45.394;10.978;2023-04-25T11:57:49;17.60;97.80
23385;DHT22;11865;45.394;10.978;2023-04-25T12:00:19;17.50;96.10
23385;DHT22;11865;45.394;10.978;2023-04-25T12:02:54;17.10;95.80
23385;DHT22;11865;45.394;10.978;2023-04-25T12:05:30;17.40;96.60
23385;DHT22;11865;45.394;10.978;2023-04-25T12:08:14;17.10;94.80
23385;DHT22;11865;45.394;10.978;2023-04-25T12:10:45;17.00;95.80
23385;DHT22;11865;45.394;10.978;2023-04-25T12:13:23;17.20;96.30
23385;DHT22;11865;45.394;10.978;2023-04-25T12:15:54;17.10;96.30
23385;DHT22;11865;45.394;10.978;2023-04-25T12:18:23;16.80;96.40
23385;DHT22;11865;45.394;10.978;2023-04-25T12:20:53;16.80;96.10
23385;DHT22;11865;45.394;10.978;2023-04-25T12:23:27;16.50;95.70
23385;DHT22;11865;45.394;10.978;2023-04-25T12:25:55;16.60;95.90
23385;DHT22;11865;45.394;10.978;2023-04-25T12:28:24;16.50;97.80
23385;DHT22;11865;45.394;10.978;2023-04-25T12:30:59;16.50;97.60
23385;DHT22;11865;45.394;10.978;2023-04-25T12:33:33;16.30;97.20
23385;DHT22;11865;45.394;10.978;2023-04-25T12:36:01;16.00;97.50
23385;DHT22;11865;45.394;10.978;2023-04-25T12:38:38;15.90;97.80
23385;DHT22;11865;45.394;10.978;2023-04-25T12:41:06;16.00;98.10
23385;DHT22;11865;45.394;10.978;2023-04-25T12:43:34;15.70;97.90
23385;DHT22;11865;45.394;10.978;2023-04-25T12:46:02;15.70;99.00
23385;DHT22;11865;45.394;10.978;2023-04-25T12:48:30;15.50;99.90
23385;DHT22;11865;45.394;10.978;2023-04-25T12:50:57;15.50;99.90
23385;DHT22;11865;45.394;10.978;2023-04-25T12:53:25;15.20;99.60
23385;DHT22;11865;45.394;10.978;2023-04-25T12:55:53;15.30;99.90
23385;DHT22;11865;45.394;10.978;2023-04-25T12:58:25;15.30;99.90
23385;DHT22;11865;45.394;10.978;2023-04-25T13:00:52;15.20;99.90
23385;DHT22;11865;45.394;10.978;2023-04-25T13:03:20;15.10;99.90
23385;DHT22;11865;45.394;10.978;2023-04-25T13:05:49;15.10;99.90
23385;DHT22;11865;45.394;10.978;2023-04-25T13:08:18;14.80;99.90
23385;DHT22;11865;45.394;10.978;2023-04-25T13:10:47;14.80;99.90
23385;DHT22;11865;45.394;10.978;2023-04-25T13:13:15;14.40;99.90
23385;DHT22;11865;45.394;10.978;2023-04-25T13:15:43;14.10;99.90
23385;DHT22;11865;45.394;10.978;2023-04-25T13:18:11;14.00;99.90
23385;DHT22;11865;45.394;10.978;2023-04-25T13:20:38;13.80;99.90
23385;DHT22;11865;45.394;10.978;2023-04-25T13:23:05;13.60;99.90
23385;DHT22;11865;45.394;10.978;2023-04-25T13:25:33;13.50;99.90
23385;DHT22;11865;45.394;10.978;2023-04-25T13:28:01;13.40;99.90
23385;DHT22;11865;45.394;10.978;2023-04-25T13:30:29;13.40;99.90
23385;DHT22;11865;45.394;10.978;2023-04-25T13:32:56;13.30;99.90
23385;DHT22;11865;45.394;10.978;2023-04-25T13:35:24;13.20;99.90
23385;DHT22;11865;45.394;10.978;2023-04-25T13:37:52;13.00;99.90
23385;DHT22;11865;45.394;10.978;2023-04-25T13:40:19;12.90;99.90
23385;DHT22;11865;45.394;10.978;2023-04-25T13:42:50;12.70;99.90
23385;DHT22;11865;45.394;10.978;2023-04-25T13:45:18;12.30;99.90
23385;DHT22;11865;45.394;10.978;2023-04-25T13:47:46;12.10;99.90
23385;DHT22;11865;45.394;10.978;2023-04-25T13:50:14;11.70;99.90
23385;DHT22;11865;45.394;10.978;2023-04-25T13:52:42;11.70;99.90
23385;DHT22;11865;45.394;10.978;2023-04-25T13:55:10;11.60;99.90
23385;DHT22;11865;45.394;10.978;2023-04-25T13:57:38;11.60;99.90
23385;DHT22;11865;45.394;10.978;2023-04-25T14:00:07;11.60;99.90
23385;DHT22;11865;45.394;10.978;2023-04-25T14:02:38;11.70;99.90
23385;DHT22;11865;45.394;10.978;2023-04-25T14:05:06;11.70;99.90
23385;DHT22;11865;45.394;10.978;2023-04-25T14:07:35;11.60;99.90
23385;DHT22;11865;45.394;10.978;2023-04-25T14:10:03;11.50;99.90
23385;DHT22;11865;45.394;10.978;2023-04-25T14:12:32;13.90;99.90
23385;DHT22;11865;45.394;10.978;2023-04-25T14:14:59;14.20;99.90
23385;DHT22;11865;45.394;10.978;2023-04-25T14:17:27;14.00;99.90
23385;DHT22;11865;45.394;10.978;2023-04-25T14:19:54;14.10;99.90
23385;DHT22;11865;45.394;10.978;2023-04-25T14:22:22;14.30;99.90
23385;DHT22;11865;45.394;10.978;2023-04-25T14:24:49;14.40;99.90
23385;DHT22;11865;45.394;10.978;2023-04-25T14:27:17;14.50;99.90
23385;DHT22;11865;45.394;10.978;2023-04-25T14:29:44;14.50;99.90
23385;DHT22;11865;45.394;10.978;2023-04-25T14:32:12;14.60;99.90
23385;DHT22;11865;45.394;10.978;2023-04-25T14:34:39;14.40;99.90
23385;DHT22;11865;45.394;10.978;2023-04-25T14:37:07;14.40;99.90
23385;DHT22;11865;45.394;10.978;2023-04-25T14:39:34;14.30;99.90
23385;DHT22;11865;45.394;10.978;2023-04-25T14:42:02;14.30;99.90
23385;DHT22;11865;45.394;10.978;2023-04-25T14:44:30;14.40;99.90
23385;DHT22;11865;45.394;10.978;2023-04-25T14:46:57;14.70;99.90
23385;DHT22;11865;45.394;10.978;2023-04-25T14:49:25;14.90;99.90
23385;DHT22;11865;45.394;10.978;2023-04-25T14:51:52;14.80;99.90
23385;DHT22;11865;45.394;10.978;2023-04-25T14:54:20;15.00;99.90
23385;DHT22;11865;45.394;10.978;2023-04-25T14:56:47;15.10;99.90
23385;DHT22;11865;45.394;10.978;2023-04-25T14:59:15;15.10;99.90
23385;DHT22;11865;45.394;10.978;2023-04-25T15:01:42;15.40;99.90
23385;DHT22;11865;45.394;10.978;2023-04-25T15:04:11;15.70;99.90
23385;DHT22;11865;45.394;10.978;2023-04-25T15:06:39;15.80;99.90
23385;DHT22;11865;45.394;10.978;2023-04-25T15:09:07;15.60;99.90
23385;DHT22;11865;45.394;10.978;2023-04-25T15:11:38;15.50;99.90
23385;DHT22;11865;45.394;10.978;2023-04-25T15:14:05;15.50;99.90
23385;DHT22;11865;45.394;10.978;2023-04-25T15:16:33;15.40;99.90
23385;DHT22;11865;45.394;10.978;2023-04-25T15:19:01;14.90;99.90
23385;DHT22;11865;45.394;10.978;2023-04-25T15:21:31;15.40;99.90
23385;DHT22;11865;45.394;10.978;2023-04-25T15:23:58;15.70;99.90
23385;DHT22;11865;45.394;10.978;2023-04-25T15:26:27;15.50;99.90
23385;DHT22;11865;45.394;10.978;2023-04-25T15:28:54;15.40;99.90
23385;DHT22;11865;45.394;10.978;2023-04-25T15:31:22;15.40;99.90
23385;DHT22;11865;45.394;10.978;2023-04-25T15:33:49;15.60;99.90
23385;DHT22;11865;45.394;10.978;2023-04-25T15:36:18;15.60;99.90
23385;DHT22;11865;45.394;10.978;2023-04-25T15:38:45;15.40;99.90
23385;DHT22;11865;45.394;10.978;2023-04-25T15:41:13;15.30;99.90